Time;durP1;ratioP1;P1;durP2;ratioP2;P2;SDS_P1;SDS_P2;PMS_P1;PMS_P2;Temp;Humidity;BMP_temperature;BMP_pressure;BME280_temperature;BME280_humidity;BME280_pressure;Samples;Min_cycle;Max_cycle;Signal;HPM_P1;HPM_P2
2022/04/05 00:00:36;;;;;;;13.60;7.57;;;7.00;99.90;;;;;;4903241;29;20058;-88
2022/04/05 00:03:03;;;;;;;16.15;7.82;;;6.90;99.90;;;;;;4893643;29;20052;-87
2022/04/05 00:05:28;;;;;;;15.35;8.18;;;6.90;99.90;;;;;;4892296;29;20025;-86
2022/04/05 00:07:54;;;;;;;16.65;8.10;;;6.80;99.90;;;;;;4903424;29;20037;-86
2022/04/05 00:10:21;;;;;;;12.63;7.55;;;6.80;99.90;;;;;;4888504;29;20021;-84
2022/04/05 00:12:47;;;;;;;13.07;7.72;;;6.70;99.90;;;;;;4907354;29;20064;-84
2022/04/05 00:15:15;;;;;;;14.98;7.70;;;6.70;99.90;;;;;;4907715;29;20104;-89
2022/04/05 00:17:41;;;;;;;12.55;7.28;;;6.70;99.90;;;;;;4883320;29;20044;-88
2022/04/05 00:20:10;;;;;;;16.77;7.70;;;6.70;99.90;;;;;;4903326;29;20566;-86
2022/04/05 00:22:36;;;;;;;15.32;7.35;;;6.70;99.90;;;;;;4902645;29;20029;-87
2022/04/05 00:25:02;;;;;;;18.98;7.82;;;6.70;99.90;;;;;;4906586;29;20009;-88
2022/04/05 00:27:28;;;;;;;15.60;7.90;;;6.70;99.90;;;;;;4899819;29;20057;-87
2022/04/05 00:30:00;;;;;;;14.52;7.93;;;6.70;99.90;;;;;;4905570;29;20020;-87
2022/04/05 00:32:30;;;;;;;16.77;7.28;;;6.70;99.90;;;;;;4884593;29;20044;-88
2022/04/05 00:34:56;;;;;;;19.02;8.77;;;6.70;99.90;;;;;;4893571;29;20017;-87
2022/04/05 00:37:25;;;;;;;11.98;7.00;;;6.70;99.90;;;;;;4898546;29;20104;-87
2022/04/05 00:39:56;;;;;;;16.20;7.97;;;6.60;99.90;;;;;;4893489;29;20014;-86
2022/04/05 00:42:22;;;;;;;15.77;7.45;;;6.60;99.90;;;;;;4913102;29;20041;-88
2022/04/05 00:44:48;;;;;;;13.02;7.40;;;6.50;99.90;;;;;;4912845;29;20028;-88
2022/04/05 00:47:24;;;;;;;15.88;7.93;;;6.50;99.90;;;;;;4907374;29;20053;-89
2022/04/05 00:50:11;;;;;;;13.48;7.68;;;6.40;99.90;;;;;;4916702;29;20024;-87
2022/04/05 00:52:39;;;;;;;15.57;8.00;;;6.30;99.90;;;;;;4896166;29;20037;-88
2022/04/05 00:55:09;;;;;;;14.23;7.63;;;6.30;99.90;;;;;;4916014;23;21424;-88
2022/04/05 00:57:39;;;;;;;15.38;7.72;;;6.20;99.90;;;;;;4911776;29;20080;-86
2022/04/05 01:00:07;;;;;;;13.68;7.53;;;6.20;99.90;;;;;;4934698;29;20075;-88
2022/04/05 01:02:41;;;;;;;13.57;7.85;;;6.20;99.90;;;;;;4912135;29;20013;-88
2022/04/05 01:05:07;;;;;;;13.20;8.35;;;6.10;99.90;;;;;;4912847;29;20033;-88
2022/04/05 01:07:39;;;;;;;14.38;7.53;;;6.10;99.90;;;;;;4917410;29;20013;-87
2022/04/05 01:10:08;;;;;;;20.02;8.18;;;6.00;99.90;;;;;;4911440;29;20029;-88
2022/04/05 01:12:34;;;;;;;16.00;7.93;;;6.00;99.90;;;;;;4911347;29;20037;-86
2022/04/05 01:15:02;;;;;;;13.98;7.82;;;5.90;99.90;;;;;;4916338;29;20020;-86
2022/04/05 01:17:29;;;;;;;18.33;8.23;;;5.90;99.90;;;;;;4909972;29;20119;-84
2022/04/05 01:19:55;;;;;;;14.15;7.50;;;5.90;99.90;;;;;;4911947;29;20040;-86
2022/04/05 01:22:21;;;;;;;13.13;7.82;;;5.90;99.90;;;;;;4912328;29;20010;-87
2022/04/05 01:24:46;;;;;;;13.50;8.25;;;5.90;99.90;;;;;;4919548;29;20040;-89
2022/04/05 01:27:19;;;;;;;15.20;8.30;;;5.90;99.90;;;;;;4901957;29;20040;-87
2022/04/05 01:29:47;;;;;;;14.93;8.32;;;5.80;99.90;;;;;;4901706;29;20024;-87
2022/04/05 01:32:14;;;;;;;17.10;8.18;;;5.80;99.90;;;;;;4891807;29;20013;-88
2022/04/05 01:34:40;;;;;;;16.38;8.32;;;5.80;99.90;;;;;;4904837;29;20041;-87
2022/04/05 01:37:12;;;;;;;11.90;6.95;;;5.80;99.90;;;;;;4913608;29;20045;-87
2022/04/05 01:39:40;;;;;;;15.60;7.72;;;5.80;99.90;;;;;;4893112;29;20025;-83
2022/04/05 01:42:12;;;;;;;13.52;7.75;;;5.80;99.90;;;;;;4911073;29;20017;-82
2022/04/05 01:44:39;;;;;;;13.63;8.07;;;5.80;99.90;;;;;;4906788;29;20028;-85
2022/04/05 01:47:11;;;;;;;16.23;8.32;;;5.80;99.90;;;;;;4888522;29;20017;-86
2022/04/05 01:49:38;;;;;;;13.68;7.95;;;5.80;99.90;;;;;;4907733;29;20111;-87
2022/04/05 01:52:04;;;;;;;15.73;9.18;;;5.80;99.90;;;;;;4904491;29;20024;-87
2022/04/05 01:54:30;;;;;;;14.40;8.15;;;5.80;99.90;;;;;;4905961;29;20017;-87
2022/04/05 01:56:56;;;;;;;15.63;8.05;;;5.80;99.90;;;;;;4908191;29;20048;-87
2022/04/05 01:59:28;;;;;;;15.05;7.68;;;5.80;99.90;;;;;;4896003;29;20046;-87
2022/04/05 02:01:54;;;;;;;16.40;8.77;;;5.80;99.90;;;;;;4896165;29;20029;-88
2022/04/05 02:04:20;;;;;;;13.43;7.40;;;5.90;99.90;;;;;;4878475;29;20088;-86
2022/04/05 02:06:47;;;;;;;15.40;8.10;;;5.90;99.90;;;;;;4901259;29;20040;-87
2022/04/05 02:09:14;;;;;;;16.50;8.75;;;5.90;99.90;;;;;;4897336;29;20088;-87
2022/04/05 02:11:43;;;;;;;16.25;7.95;;;5.90;99.90;;;;;;4902266;29;20064;-87
2022/04/05 02:14:31;;;;;;;14.07;7.53;;;5.90;99.90;;;;;;4903944;29;20022;-87
2022/04/05 02:17:00;;;;;;;11.98;7.00;;;6.00;99.90;;;;;;4900461;29;20021;-87
2022/04/05 02:19:28;;;;;;;16.60;8.13;;;6.00;99.90;;;;;;4896868;29;20119;-89
2022/04/05 02:21:55;;;;;;;14.25;7.50;;;6.10;99.90;;;;;;4892666;29;20497;-87
2022/04/05 02:24:23;;;;;;;12.10;6.93;;;6.10;99.90;;;;;;4891887;29;20044;-88
2022/04/05 02:26:50;;;;;;;16.67;7.10;;;6.20;99.90;;;;;;4890959;29;20029;-87
2022/04/05 02:29:19;;;;;;;14.80;7.40;;;6.20;99.90;;;;;;4893394;29;20084;-87
2022/04/05 02:31:48;;;;;;;13.40;7.85;;;6.30;99.90;;;;;;4894807;29;20045;-87
2022/04/05 02:34:14;;;;;;;12.73;7.22;;;6.30;99.90;;;;;;4893682;29;20545;-87
2022/04/05 02:36:48;;;;;;;16.20;7.70;;;6.30;99.90;;;;;;4890133;29;20066;-87
2022/04/05 02:39:15;;;;;;;15.70;7.50;;;6.30;99.90;;;;;;4887994;29;20025;-86
2022/04/05 02:41:43;;;;;;;11.35;6.57;;;6.40;99.90;;;;;;4885461;29;20041;-88
2022/04/05 02:44:10;;;;;;;14.10;7.10;;;6.40;99.90;;;;;;4892770;29;20037;-88
2022/04/05 02:46:37;;;;;;;11.88;6.95;;;6.50;99.90;;;;;;4891528;29;20054;-87
2022/04/05 02:49:04;;;;;;;11.20;6.30;;;6.50;99.90;;;;;;4894545;29;20025;-88
2022/04/05 02:51:35;;;;;;;15.52;6.80;;;6.60;99.90;;;;;;4895772;29;20040;-88
2022/04/05 02:54:07;;;;;;;11.68;6.78;;;6.60;99.90;;;;;;4876053;29;20109;-89
2022/04/05 02:56:35;;;;;;;12.20;6.95;;;6.60;99.90;;;;;;4888642;29;20029;-88
2022/04/05 02:59:01;;;;;;;12.02;6.25;;;6.60;99.90;;;;;;4890092;29;20037;-88
2022/04/05 03:01:28;;;;;;;11.88;5.90;;;6.60;99.90;;;;;;4898742;29;20017;-88
2022/04/05 03:03:59;;;;;;;10.13;5.32;;;6.70;99.90;;;;;;4901511;29;20073;-89
2022/04/05 03:06:25;;;;;;;13.68;6.22;;;6.70;99.90;;;;;;4901739;29;20037;-88
2022/04/05 03:08:56;;;;;;;11.95;5.68;;;6.70;99.90;;;;;;4886846;29;20014;-89
2022/04/05 03:11:23;;;;;;;12.40;5.65;;;6.70;99.90;;;;;;4901220;29;20068;-90
2022/04/05 03:13:51;;;;;;;10.45;6.03;;;6.80;99.90;;;;;;4901259;29;20025;-87
2022/04/05 03:16:18;;;;;;;11.25;5.97;;;6.80;99.90;;;;;;4892287;29;20029;-88
2022/04/05 03:18:46;;;;;;;9.05;5.43;;;6.80;99.90;;;;;;4876635;29;20029;-86
2022/04/05 03:21:13;;;;;;;10.63;5.43;;;6.80;99.90;;;;;;4891852;29;20378;-88
2022/04/05 03:23:39;;;;;;;8.77;5.28;;;6.80;99.90;;;;;;4877440;29;20048;-87
2022/04/05 03:26:06;;;;;;;10.77;5.97;;;6.80;99.90;;;;;;4900165;29;20048;-87
2022/04/05 03:28:32;;;;;;;12.63;5.97;;;6.90;99.90;;;;;;4891203;29;20052;-88
2022/04/05 03:30:59;;;;;;;15.63;6.15;;;6.80;99.90;;;;;;4894234;29;20029;-87
2022/04/05 03:33:25;;;;;;;7.88;5.32;;;6.80;99.90;;;;;;4879310;29;20546;-88
2022/04/05 03:35:55;;;;;;;12.05;6.05;;;6.90;99.90;;;;;;4892054;29;20054;-87
2022/04/05 03:38:22;;;;;;;9.27;5.25;;;6.90;99.90;;;;;;4895761;29;20520;-88
2022/04/05 03:40:49;;;;;;;13.18;6.32;;;6.90;99.90;;;;;;4880123;29;20025;-88
2022/04/05 03:43:16;;;;;;;8.90;4.90;;;7.00;99.90;;;;;;4896713;29;20035;-86
2022/04/05 03:45:47;;;;;;;12.20;5.45;;;6.90;99.90;;;;;;4895647;29;20041;-89
2022/04/05 03:48:15;;;;;;;10.57;5.55;;;7.00;99.90;;;;;;4891024;29;20058;-86
2022/04/05 03:50:42;;;;;;;9.30;5.78;;;7.00;99.90;;;;;;4896468;29;20021;-88
2022/04/05 03:53:08;;;;;;;8.77;5.38;;;7.00;99.90;;;;;;4882756;29;20044;-89
2022/04/05 03:55:35;;;;;;;8.05;4.93;;;7.10;99.90;;;;;;4892316;29;20062;-88
2022/04/05 03:58:05;;;;;;;9.98;5.40;;;7.10;99.90;;;;;;4890215;29;20040;-88
2022/04/05 04:00:31;;;;;;;8.80;5.50;;;7.10;99.90;;;;;;4895070;29;20025;-88
2022/04/05 04:03:10;;;;;;;9.80;5.25;;;7.20;99.90;;;;;;4876337;29;20029;-89
2022/04/05 04:05:36;;;;;;;11.43;5.20;;;7.20;99.90;;;;;;4859001;29;20030;-88
2022/04/05 04:08:23;;;;;;;11.32;5.22;;;7.20;99.90;;;;;;4893953;29;20037;-87
2022/04/05 04:10:51;;;;;;;9.65;5.25;;;7.20;99.90;;;;;;4877186;29;20090;-87
2022/04/05 04:13:20;;;;;;;9.00;5.10;;;7.20;99.90;;;;;;4932137;23;20037;-83
2022/04/05 04:15:48;;;;;;;10.07;5.07;;;7.20;99.90;;;;;;4900694;29;20099;-83
2022/04/05 04:18:15;;;;;;;9.20;5.40;;;7.30;99.90;;;;;;4903732;29;20025;-81
2022/04/05 04:20:45;;;;;;;19.02;8.30;;;7.30;99.90;;;;;;4903560;29;20035;-81
2022/04/05 04:23:13;;;;;;;9.13;5.22;;;7.20;99.90;;;;;;4903923;29;20029;-81
2022/04/05 04:25:44;;;;;;;10.82;5.05;;;7.30;99.90;;;;;;4902999;29;20061;-81
2022/04/05 04:28:10;;;;;;;11.75;5.22;;;7.30;99.90;;;;;;4899186;29;20032;-80
2022/04/05 04:30:37;;;;;;;10.32;5.47;;;7.30;99.90;;;;;;4903540;29;20029;-80
2022/04/05 04:33:04;;;;;;;9.70;5.30;;;7.40;99.90;;;;;;4903680;29;20033;-81
2022/04/05 04:35:31;;;;;;;7.10;4.82;;;7.40;99.90;;;;;;4902986;29;20017;-81
2022/04/05 04:37:58;;;;;;;9.27;5.05;;;7.40;99.90;;;;;;4904166;29;20044;-82
2022/04/05 04:40:25;;;;;;;10.88;5.40;;;7.40;99.90;;;;;;4903275;29;20013;-80
2022/04/05 04:42:51;;;;;;;8.48;4.70;;;7.40;99.90;;;;;;4903237;29;20025;-81
2022/04/05 04:45:17;;;;;;;12.27;5.07;;;7.40;99.90;;;;;;4903164;29;20013;-81
2022/04/05 04:47:43;;;;;;;8.85;4.95;;;7.50;99.90;;;;;;4903148;29;20037;-82
2022/04/05 04:50:12;;;;;;;8.15;4.63;;;7.50;99.90;;;;;;4902759;29;20078;-82
2022/04/05 04:52:39;;;;;;;7.47;4.63;;;7.60;99.90;;;;;;4903095;29;20025;-80
2022/04/05 04:55:08;;;;;;;8.65;4.70;;;7.60;99.90;;;;;;4903877;29;20048;-82
2022/04/05 04:57:34;;;;;;;9.10;5.28;;;7.60;99.90;;;;;;4902291;29;20025;-82
2022/04/05 05:00:00;;;;;;;10.93;4.75;;;7.60;99.90;;;;;;4902894;29;20123;-81
2022/04/05 05:02:26;;;;;;;9.20;4.80;;;7.70;99.90;;;;;;4903229;29;20017;-82
2022/04/05 05:04:52;;;;;;;7.95;4.30;;;7.60;99.90;;;;;;4902141;29;20265;-82
2022/04/05 05:07:18;;;;;;;14.95;5.10;;;7.70;99.90;;;;;;4901751;29;20024;-82
2022/04/05 05:09:44;;;;;;;10.57;4.63;;;7.70;99.90;;;;;;4903238;29;20025;-82
2022/04/05 05:12:12;;;;;;;10.57;5.22;;;7.70;99.90;;;;;;4902556;29;20069;-83
2022/04/05 05:14:38;;;;;;;7.90;4.85;;;7.70;99.90;;;;;;4903467;29;20077;-82
2022/04/05 05:17:05;;;;;;;7.93;4.30;;;7.80;99.90;;;;;;4902922;29;20024;-83
2022/04/05 05:19:32;;;;;;;8.60;4.97;;;7.80;99.90;;;;;;4895835;29;20044;-83
2022/04/05 05:21:58;;;;;;;14.27;4.57;;;7.80;99.90;;;;;;4896803;29;20050;-82
2022/04/05 05:24:24;;;;;;;8.45;5.18;;;7.80;99.90;;;;;;4895910;29;20517;-83
2022/04/05 05:26:50;;;;;;;10.93;4.65;;;7.80;99.90;;;;;;4897269;29;20029;-84
2022/04/05 05:29:16;;;;;;;11.23;5.15;;;7.80;99.90;;;;;;4899164;29;20029;-82
2022/04/05 05:31:42;;;;;;;9.23;4.95;;;7.90;99.90;;;;;;4902296;29;20040;-82
2022/04/05 05:34:08;;;;;;;22.27;5.45;;;7.90;99.90;;;;;;4902833;29;20017;-83
2022/04/05 05:36:34;;;;;;;12.85;5.97;;;7.90;99.90;;;;;;4901938;29;20045;-83
2022/04/05 05:39:00;;;;;;;13.90;5.53;;;7.90;99.90;;;;;;4901140;29;20060;-83
2022/04/05 05:41:26;;;;;;;10.23;5.40;;;7.90;99.90;;;;;;4899007;29;20029;-84
2022/04/05 05:43:52;;;;;;;11.55;5.45;;;7.90;99.90;;;;;;4875218;29;20029;-82
2022/04/05 05:46:18;;;;;;;7.95;5.00;;;7.90;99.90;;;;;;4878901;29;20029;-85
2022/04/05 05:48:44;;;;;;;9.10;5.40;;;8.00;99.90;;;;;;4878065;29;20034;-83
2022/04/05 05:51:10;;;;;;;8.88;5.57;;;8.00;99.90;;;;;;4877606;29;20058;-84
2022/04/05 05:53:35;;;;;;;9.40;5.53;;;8.00;99.90;;;;;;4878299;29;20029;-83
2022/04/05 05:56:02;;;;;;;11.90;6.35;;;8.00;99.90;;;;;;4878197;29;20033;-84
2022/04/05 05:58:28;;;;;;;9.93;5.38;;;8.00;99.90;;;;;;4881963;29;20033;-82
2022/04/05 06:00:53;;;;;;;9.88;5.18;;;8.00;99.90;;;;;;4884453;29;20041;-80
2022/04/05 06:03:19;;;;;;;16.73;6.88;;;8.00;99.90;;;;;;4884447;29;20028;-81
2022/04/05 06:05:46;;;;;;;9.27;5.32;;;8.00;99.90;;;;;;4883836;29;20025;-81
2022/04/05 06:08:13;;;;;;;15.85;6.13;;;8.00;99.90;;;;;;4884493;29;20017;-81
2022/04/05 06:10:40;;;;;;;11.48;6.18;;;8.00;99.90;;;;;;4884455;29;20029;-79
2022/04/05 06:13:05;;;;;;;9.95;6.28;;;8.00;99.90;;;;;;4884486;29;20025;-80
2022/04/05 06:15:32;;;;;;;8.68;5.80;;;7.90;99.90;;;;;;4884447;29;20021;-81
2022/04/05 06:17:58;;;;;;;10.80;5.38;;;7.90;99.90;;;;;;4899426;29;20033;-80
2022/04/05 06:20:25;;;;;;;10.48;6.20;;;7.90;99.90;;;;;;4899031;29;20060;-83
2022/04/05 06:23:00;;;;;;;9.77;6.15;;;7.90;99.90;;;;;;4884038;29;20097;-80
2022/04/05 06:25:28;;;;;;;15.73;6.75;;;7.90;99.90;;;;;;4896109;29;20032;-81
2022/04/05 06:28:01;;;;;;;11.90;6.25;;;7.80;99.90;;;;;;4903001;29;20028;-81
2022/04/05 06:30:27;;;;;;;10.18;5.40;;;7.80;99.90;;;;;;4901948;29;20047;-79
2022/04/05 06:33:07;;;;;;;8.65;5.90;;;7.80;99.90;;;;;;4902205;29;20021;-80
2022/04/05 06:35:34;;;;;;;13.50;6.40;;;7.90;99.90;;;;;;4901955;29;20025;-81
2022/04/05 06:38:00;;;;;;;11.27;6.07;;;7.90;99.90;;;;;;4902634;29;20093;-79
2022/04/05 06:40:26;;;;;;;10.88;6.40;;;7.90;99.90;;;;;;4902946;29;20017;-81
2022/04/05 06:42:52;;;;;;;9.93;5.57;;;7.90;99.90;;;;;;4903198;29;20029;-84
2022/04/05 06:45:19;;;;;;;10.00;6.00;;;7.90;99.90;;;;;;4902973;29;20044;-82
2022/04/05 06:47:47;;;;;;;10.35;5.68;;;7.90;99.90;;;;;;4901783;29;20025;-87
2022/04/05 06:50:14;;;;;;;8.70;5.28;;;7.90;99.90;;;;;;4902526;29;20172;-81
2022/04/05 06:52:41;;;;;;;13.88;5.68;;;7.90;99.90;;;;;;4903167;29;20021;-82
2022/04/05 06:55:09;;;;;;;14.55;6.10;;;7.80;99.90;;;;;;4903033;29;20017;-82
2022/04/05 06:57:36;;;;;;;15.50;6.28;;;7.90;99.90;;;;;;4900767;29;20041;-84
2022/04/05 07:00:09;;;;;;;10.15;5.20;;;7.80;99.90;;;;;;4897167;29;20081;-86
2022/04/05 07:02:35;;;;;;;11.13;5.90;;;7.80;99.90;;;;;;4895486;29;20042;-85
2022/04/05 07:05:05;;;;;;;10.93;5.07;;;7.80;99.90;;;;;;4866572;29;20033;-85
2022/04/05 07:07:31;;;;;;;22.40;7.93;;;7.90;99.90;;;;;;4911729;29;20031;-87
2022/04/05 07:09:57;;;;;;;10.50;5.70;;;7.90;99.90;;;;;;4914809;29;20021;-84
2022/04/05 07:12:23;;;;;;;9.32;5.78;;;7.90;99.90;;;;;;4893962;29;20097;-84
2022/04/05 07:14:51;;;;;;;10.68;5.50;;;7.90;99.90;;;;;;4904674;29;20013;-87
2022/04/05 07:17:18;;;;;;;10.63;5.07;;;7.90;99.90;;;;;;4921655;29;20041;-86
2022/04/05 07:19:44;;;;;;;11.20;5.57;;;7.90;99.90;;;;;;4903757;29;20033;-86
2022/04/05 07:22:10;;;;;;;11.15;5.63;;;7.90;99.90;;;;;;4910164;29;20037;-85
2022/04/05 07:24:36;;;;;;;9.30;5.70;;;8.00;99.90;;;;;;4902577;29;20036;-85
2022/04/05 07:27:02;;;;;;;9.45;5.35;;;7.90;99.90;;;;;;4899620;29;20040;-86
2022/04/05 07:29:27;;;;;;;13.20;6.00;;;8.00;99.90;;;;;;4899021;29;20056;-86
2022/04/05 07:31:53;;;;;;;15.23;5.20;;;7.90;99.90;;;;;;4882426;29;20066;-88
2022/04/05 07:34:19;;;;;;;10.85;5.75;;;8.00;99.90;;;;;;4894050;29;20025;-86
2022/04/05 07:36:45;;;;;;;10.77;5.53;;;8.00;99.90;;;;;;4876660;29;20051;-87
2022/04/05 07:39:11;;;;;;;9.60;6.13;;;7.90;99.90;;;;;;4891921;29;20108;-86
2022/04/05 07:41:38;;;;;;;7.65;5.22;;;7.90;99.90;;;;;;4891942;29;20029;-86
2022/04/05 07:44:05;;;;;;;10.38;5.32;;;7.90;99.90;;;;;;4876526;29;20036;-88
2022/04/05 07:46:31;;;;;;;8.30;4.82;;;7.80;99.90;;;;;;4876288;29;20100;-87
2022/04/05 07:48:57;;;;;;;7.32;4.80;;;7.80;99.90;;;;;;4896635;29;20033;-87
2022/04/05 07:51:23;;;;;;;8.57;5.20;;;7.80;99.90;;;;;;4891181;29;20043;-86
2022/04/05 07:53:48;;;;;;;14.88;5.63;;;7.70;99.90;;;;;;4874098;29;20048;-84
2022/04/05 07:56:14;;;;;;;10.20;4.85;;;7.70;99.90;;;;;;4888844;29;20041;-84
2022/04/05 07:58:42;;;;;;;13.93;5.13;;;7.70;99.90;;;;;;4890629;29;20040;-87
2022/04/05 08:01:12;;;;;;;9.25;5.18;;;7.70;99.90;;;;;;4872874;29;20029;-86
2022/04/05 08:03:38;;;;;;;8.35;4.82;;;7.70;99.90;;;;;;4890383;29;20029;-88
2022/04/05 08:06:04;;;;;;;10.52;5.88;;;7.70;99.90;;;;;;4890214;29;20456;-85
2022/04/05 08:08:30;;;;;;;10.63;6.30;;;7.70;99.90;;;;;;4873074;29;20029;-85
2022/04/05 08:10:57;;;;;;;9.68;5.93;;;7.70;99.90;;;;;;4891144;29;20072;-83
2022/04/05 08:13:26;;;;;;;8.52;5.50;;;7.70;99.90;;;;;;4894477;29;20450;-87
2022/04/05 08:15:53;;;;;;;10.40;5.15;;;7.70;99.90;;;;;;4891359;29;20089;-85
2022/04/05 08:18:20;;;;;;;10.07;4.97;;;7.90;99.90;;;;;;4890942;29;20029;-87
2022/04/05 08:20:45;;;;;;;7.22;4.80;;;8.00;99.90;;;;;;4899637;29;20033;-84
2022/04/05 08:23:11;;;;;;;11.30;5.30;;;8.00;99.90;;;;;;4898685;29;20052;-86
2022/04/05 08:25:37;;;;;;;7.55;4.65;;;8.10;99.90;;;;;;4895725;29;20037;-83
2022/04/05 08:28:04;;;;;;;9.30;4.88;;;8.20;99.90;;;;;;4908597;29;20035;-82
2022/04/05 08:30:30;;;;;;;9.52;5.38;;;8.20;99.90;;;;;;4913541;29;20021;-86
2022/04/05 08:32:57;;;;;;;7.20;4.82;;;8.30;99.90;;;;;;4912783;29;20081;-83
2022/04/05 08:35:23;;;;;;;9.18;4.50;;;8.50;99.90;;;;;;4901112;29;20089;-84
2022/04/05 08:37:51;;;;;;;8.80;4.70;;;8.60;99.90;;;;;;4901615;29;20107;-84
2022/04/05 08:40:19;;;;;;;6.00;3.78;;;8.70;99.90;;;;;;4905593;29;20112;-86
2022/04/05 08:42:49;;;;;;;6.80;3.95;;;8.70;99.90;;;;;;4899082;29;20046;-83
2022/04/05 08:45:16;;;;;;;7.70;4.45;;;8.90;99.90;;;;;;4900827;29;20056;-82
2022/04/05 08:47:54;;;;;;;5.68;3.65;;;8.90;99.90;;;;;;4897243;29;20033;-86
2022/04/05 08:50:22;;;;;;;5.07;3.70;;;9.10;99.90;;;;;;4909668;29;20040;-81
2022/04/05 08:52:49;;;;;;;4.80;3.30;;;9.20;99.90;;;;;;4968006;24;20036;-81
2022/04/05 08:55:18;;;;;;;7.28;3.97;;;9.50;99.90;;;;;;4927490;29;20042;-83
2022/04/05 08:57:45;;;;;;;6.40;3.95;;;9.80;99.90;;;;;;4930600;29;20027;-84
2022/04/05 09:00:14;;;;;;;5.97;3.67;;;9.90;99.90;;;;;;4941150;29;20099;-84
2022/04/05 09:02:57;;;;;;;4.90;3.45;;;9.90;99.90;;;;;;4941361;29;20028;-85
2022/04/05 09:05:31;;;;;;;5.63;3.22;;;9.90;99.90;;;;;;4929578;29;20024;-82
2022/04/05 09:08:14;;;;;;;4.93;3.43;;;9.80;99.90;;;;;;4932533;29;20032;-83
2022/04/05 09:10:41;;;;;;;8.02;3.45;;;9.70;99.90;;;;;;4916318;29;20036;-83
2022/04/05 09:13:15;;;;;;;5.88;3.95;;;9.70;99.90;;;;;;4914973;29;20041;-86
2022/04/05 09:15:42;;;;;;;4.57;3.13;;;9.80;99.90;;;;;;4920948;29;20017;-85
2022/04/05 09:18:08;;;;;;;5.95;3.38;;;9.90;99.90;;;;;;4903422;29;20036;-81
2022/04/05 09:20:46;;;;;;;4.18;2.80;;;9.90;99.90;;;;;;4930470;29;20037;-82
2022/04/05 09:23:38;;;;;;;3.55;2.72;;;10.00;99.90;;;;;;4927651;29;20031;-84
2022/04/05 09:26:06;;;;;;;3.97;2.78;;;9.90;99.90;;;;;;4933056;29;20048;-84
2022/04/05 09:28:35;;;;;;;4.85;2.70;;;10.20;99.90;;;;;;4922160;29;20520;-84
2022/04/05 09:31:07;;;;;;;4.97;2.92;;;10.30;99.90;;;;;;4931098;29;20044;-84
2022/04/05 09:33:36;;;;;;;8.48;2.63;;;10.40;99.90;;;;;;4916864;29;20020;-83
2022/04/05 09:36:08;;;;;;;4.57;2.72;;;10.70;99.90;;;;;;4921448;29;20068;-85
2022/04/05 09:38:35;;;;;;;4.07;2.58;;;10.90;99.90;;;;;;4920839;29;20041;-86
2022/04/05 09:41:12;;;;;;;4.88;2.92;;;11.00;99.90;;;;;;4918337;29;20039;-84
2022/04/05 09:43:53;;;;;;;11.13;2.70;;;11.10;99.90;;;;;;4915668;29;20032;-84
2022/04/05 09:46:19;;;;;;;5.25;2.90;;;11.10;99.90;;;;;;4915671;29;20028;-85
2022/04/05 09:48:46;;;;;;;5.85;2.85;;;11.30;99.90;;;;;;4910068;29;20088;-86
2022/04/05 09:51:17;;;;;;;4.25;2.30;;;11.60;99.90;;;;;;4909180;29;20039;-86
2022/04/05 09:53:54;;;;;;;4.63;2.03;;;11.90;99.90;;;;;;4908356;29;20046;-86
2022/04/05 09:56:22;;;;;;;3.40;2.20;;;12.00;99.90;;;;;;4907816;29;20032;-87
2022/04/05 09:58:54;;;;;;;3.45;2.60;;;12.40;99.90;;;;;;4911743;29;20056;-86
2022/04/05 10:01:23;;;;;;;3.92;2.60;;;12.40;99.90;;;;;;4911008;29;20032;-85
2022/04/05 10:04:12;;;;;;;3.40;2.30;;;12.30;99.90;;;;;;4909259;29;20049;-84
2022/04/05 10:06:43;;;;;;;4.15;2.42;;;12.30;99.90;;;;;;4908813;29;20071;-86
2022/04/05 10:09:10;;;;;;;7.35;2.33;;;12.20;99.90;;;;;;4909687;29;20036;-86
2022/04/05 10:11:37;;;;;;;4.28;2.50;;;12.20;99.90;;;;;;4910004;29;20029;-86
2022/04/05 10:14:04;;;;;;;4.47;2.58;;;12.30;99.90;;;;;;4908481;29;20054;-83
2022/04/05 10:16:31;;;;;;;3.95;2.47;;;12.20;99.90;;;;;;4933659;23;20048;-84
2022/04/05 10:19:07;;;;;;;3.97;2.10;;;12.10;99.90;;;;;;4930434;29;20062;-84
2022/04/05 10:21:35;;;;;;;3.15;2.28;;;11.90;99.90;;;;;;4931960;29;20036;-86
2022/04/05 10:24:04;;;;;;;3.63;2.20;;;12.00;99.90;;;;;;4913973;29;20024;-82
2022/04/05 10:26:38;;;;;;;5.20;2.60;;;12.10;99.90;;;;;;4929880;29;20051;-82
2022/04/05 10:29:15;;;;;;;5.00;2.60;;;12.30;99.90;;;;;;4920482;29;20040;-82
2022/04/05 10:32:21;;;;;;;6.03;2.47;;;12.20;99.90;;;;;;4915110;29;20060;-85
2022/04/05 10:34:54;;;;;;;5.65;3.03;;;12.30;99.90;;;;;;4915907;29;20033;-85
2022/04/05 10:37:34;;;;;;;4.22;2.72;;;12.30;99.90;;;;;;4916411;29;20047;-81
2022/04/05 10:40:00;;;;;;;7.72;4.93;;;11.80;99.90;;;;;;4917532;29;20047;-83
2022/04/05 10:42:34;;;;;;;5.95;3.72;;;11.50;99.90;;;;;;4919397;29;20052;-83
2022/04/05 10:45:13;;;;;;;4.03;2.95;;;11.20;99.90;;;;;;4917299;29;20029;-83
2022/04/05 10:48:10;;;;;;;3.80;2.65;;;11.10;99.90;;;;;;4915635;29;20080;-83
2022/04/05 10:50:36;;;;;;;5.40;2.70;;;11.30;99.90;;;;;;4918703;29;20033;-83
2022/04/05 10:53:17;;;;;;;4.47;2.75;;;11.20;99.90;;;;;;4917781;29;20025;-81
2022/04/05 10:56:02;;;;;;;3.90;2.40;;;11.40;99.90;;;;;;4917329;29;20032;-83
2022/04/05 10:58:29;;;;;;;5.10;2.63;;;11.50;99.90;;;;;;4915472;29;20042;-83
2022/04/05 11:01:14;;;;;;;4.40;2.65;;;11.60;99.90;;;;;;4914986;29;20032;-84
2022/04/05 11:03:40;;;;;;;3.13;2.20;;;11.70;99.90;;;;;;4915173;29;20033;-82
2022/04/05 11:06:06;;;;;;;5.15;2.67;;;11.70;99.90;;;;;;4915127;29;20025;-85
2022/04/05 11:08:33;;;;;;;4.97;2.58;;;11.70;99.90;;;;;;4919546;29;20100;-81
2022/04/05 11:11:05;;;;;;;3.00;2.10;;;11.60;99.90;;;;;;4917038;29;20033;-83
2022/04/05 11:13:39;;;;;;;3.60;2.20;;;11.60;99.90;;;;;;4914729;29;20036;-84
2022/04/05 11:16:10;;;;;;;6.50;2.88;;;11.60;99.90;;;;;;4913570;29;20056;-84
2022/04/05 11:18:37;;;;;;;3.85;2.40;;;11.70;99.90;;;;;;4912429;29;20040;-87
2022/04/05 11:21:08;;;;;;;3.58;2.40;;;11.90;99.90;;;;;;4894093;29;20031;-83
2022/04/05 11:23:42;;;;;;;2.63;2.30;;;11.90;99.90;;;;;;4910469;29;20517;-84
2022/04/05 11:26:28;;;;;;;4.97;2.70;;;11.90;99.90;;;;;;4910513;29;20123;-84
2022/04/05 11:28:58;;;;;;;4.60;2.53;;;11.80;99.90;;;;;;4913766;29;20028;-83
2022/04/05 11:31:29;;;;;;;4.32;2.67;;;11.70;99.90;;;;;;4914054;29;20061;-83
2022/04/05 11:33:55;;;;;;;8.07;2.55;;;11.70;99.90;;;;;;4918723;29;20093;-84
2022/04/05 11:36:25;;;;;;;7.22;2.50;;;11.30;99.90;;;;;;4915725;29;20031;-82
2022/04/05 11:38:58;;;;;;;4.13;2.35;;;11.20;99.90;;;;;;4916339;29;20045;-82
2022/04/05 11:41:29;;;;;;;6.03;2.58;;;11.30;99.90;;;;;;4916303;29;20100;-83
2022/04/05 11:43:57;;;;;;;6.80;2.90;;;11.30;99.90;;;;;;4915318;29;20029;-82
2022/04/05 11:46:27;;;;;;;4.07;2.78;;;11.20;99.90;;;;;;4920040;29;20024;-82
2022/04/05 11:49:03;;;;;;;5.50;3.08;;;11.20;99.90;;;;;;4916476;29;20043;-83
2022/04/05 11:51:34;;;;;;;5.88;2.95;;;10.80;99.90;;;;;;4915740;29;20067;-83
2022/04/05 11:54:17;;;;;;;4.07;2.97;;;10.90;99.90;;;;;;4901003;29;20040;-82
2022/04/05 11:56:44;;;;;;;3.78;2.60;;;11.00;99.90;;;;;;4916005;29;20099;-82
2022/04/05 11:59:18;;;;;;;4.93;3.30;;;11.00;99.90;;;;;;4915894;29;20055;-83
2022/04/05 12:01:49;;;;;;;3.78;2.78;;;11.10;99.90;;;;;;4914594;29;20087;-82
2022/04/05 12:04:18;;;;;;;6.50;2.60;;;11.20;99.90;;;;;;4906208;29;20508;-83
2022/04/05 12:06:45;;;;;;;4.35;2.65;;;11.40;99.90;;;;;;4906241;29;20076;-85
2022/04/05 12:09:13;;;;;;;9.73;3.13;;;11.80;99.90;;;;;;4906048;29;20040;-85
2022/04/05 12:11:50;;;;;;;15.07;3.05;;;11.80;99.90;;;;;;4905789;29;20119;-84
2022/04/05 12:14:22;;;;;;;4.57;2.60;;;11.90;99.90;;;;;;4908158;29;20040;-82
2022/04/05 12:16:56;;;;;;;3.20;2.55;;;12.00;99.90;;;;;;4909314;29;20118;-83
2022/04/05 12:19:29;;;;;;;4.07;2.63;;;12.00;99.90;;;;;;4905431;29;20083;-83
2022/04/05 12:22:01;;;;;;;2.95;2.33;;;12.20;99.90;;;;;;4907076;29;20460;-81
2022/04/05 12:24:29;;;;;;;7.25;3.20;;;12.50;99.90;;;;;;4916173;29;20033;-82
2022/04/05 12:26:59;;;;;;;3.70;2.67;;;12.70;99.90;;;;;;4910267;29;20025;-84
2022/04/05 12:29:27;;;;;;;5.25;2.40;;;13.10;99.90;;;;;;4907861;29;20042;-82
2022/04/05 12:31:54;;;;;;;2.95;2.20;;;13.40;99.90;;;;;;4908314;29;20025;-84
2022/04/05 12:34:20;;;;;;;4.82;2.20;;;13.60;99.90;;;;;;4915572;29;20060;-82
2022/04/05 12:36:52;;;;;;;4.32;2.13;;;13.40;99.90;;;;;;4905481;29;20033;-82
2022/04/05 12:39:29;;;;;;;6.32;3.58;;;13.20;99.90;;;;;;4920182;29;20052;-81
2022/04/05 12:42:04;;;;;;;3.05;2.30;;;13.10;99.90;;;;;;4914668;29;20020;-82
2022/04/05 12:44:32;;;;;;;4.38;2.63;;;13.00;99.90;;;;;;4922086;29;20025;-81
2022/04/05 12:47:10;;;;;;;3.55;2.50;;;12.70;99.90;;;;;;4917109;29;20036;-84
2022/04/05 12:49:37;;;;;;;3.95;2.30;;;12.50;99.90;;;;;;4910163;29;20061;-82
2022/04/05 12:52:19;;;;;;;6.65;2.40;;;12.60;99.90;;;;;;4908305;29;20159;-80
2022/04/05 12:54:46;;;;;;;3.83;2.38;;;12.50;99.90;;;;;;4910820;29;20039;-84
2022/04/05 12:57:35;;;;;;;3.55;2.63;;;12.70;99.90;;;;;;4910525;29;20037;-87
2022/04/05 13:00:12;;;;;;;3.22;2.22;;;12.90;99.90;;;;;;4909080;29;20029;-81